Time;durP1;ratioP1;P1;durP2;ratioP2;P2;SDS_P1;SDS_P2;PMS_P1;PMS_P2;Temp;Humidity;BMP_temperature;BMP_pressure;BME280_temperature;BME280_humidity;BME280_pressure;Samples;Min_cycle;Max_cycle;Signal;HPM_P1;HPM_P2
2024/01/01 00:00:32;;;;;;;113.17;63.92;;;;;;;2.90;97.57;99489.13;1670371;85;25413;-55
2024/01/01 00:03:00;;;;;;;113.22;63.68;;;;;;;2.87;97.52;99474.20;1643474;85;25554;-55
2024/01/01 00:05:26;;;;;;;112.92;61.73;;;;;;;2.82;97.42;99460.33;1643384;85;25445;-55
2024/01/01 00:07:53;;;;;;;117.65;61.13;;;;;;;2.82;97.36;99464.33;1668105;84;28059;-54
2024/01/01 00:10:19;;;;;;;106.67;57.23;;;;;;;2.79;97.30;99461.70;1636721;87;25489;-53
2024/01/01 00:12:46;;;;;;;106.47;58.33;;;;;;;2.78;97.33;99460.09;1597003;86;25481;-56
2024/01/01 00:15:13;;;;;;;100.00;56.23;;;;;;;2.73;97.25;99466.80;1637677;86;25624;-56
2024/01/01 00:17:40;;;;;;;86.92;51.13;;;;;;;2.72;97.23;99467.07;1644563;87;25464;-53
2024/01/01 00:20:10;;;;;;;99.70;52.23;;;;;;;2.70;97.61;99456.66;1644566;87;27364;-56
2024/01/01 00:22:36;;;;;;;;;;;;;;;2.68;97.58;99456.70;1665257;86;25584;-50
2024/01/01 00:25:02;;;;;;;93.05;49.83;;;;;;;2.66;97.66;99463.64;1614421;87;25566;-54
2024/01/01 00:27:31;;;;;;;92.05;50.05;;;;;;;2.64;97.77;99461.80;1662813;86;25622;-52
2024/01/01 00:29:57;;;;;;;95.67;50.50;;;;;;;2.64;97.86;99453.78;1632265;87;25548;-54
2024/01/01 00:32:23;;;;;;;102.02;49.15;;;;;;;2.65;97.92;99454.58;1660677;86;27965;-52
2024/01/01 00:34:49;;;;;;;98.37;51.37;;;;;;;2.61;97.88;99455.66;1621582;87;25469;-52
2024/01/01 00:37:16;;;;;;;97.25;53.00;;;;;;;2.61;98.11;99458.34;1662541;85;25873;-53
2024/01/01 00:39:42;;;;;;;101.07;53.45;;;;;;;2.60;98.16;99456.73;1631901;87;25899;-60
2024/01/01 00:42:09;;;;;;;99.22;54.88;;;;;;;2.60;98.18;99458.06;1644128;87;25915;-54
2024/01/01 00:44:35;;;;;;;101.87;54.40;;;;;;;2.59;98.23;99453.81;1621331;87;27350;-53
2024/01/01 00:47:01;;;;;;;104.50;53.80;;;;;;;2.61;98.28;99462.34;1621191;87;25724;-56
2024/01/01 00:49:28;;;;;;;96.32;53.23;;;;;;;2.63;98.43;99464.73;1621267;87;25544;-55
2024/01/01 00:51:54;;;;;;;98.82;52.93;;;;;;;2.62;98.58;99463.92;1644271;86;25647;-54
2024/01/01 00:54:20;;;;;;;96.15;51.95;;;;;;;2.65;98.67;99455.91;1639855;86;25523;-52
2024/01/01 00:56:48;;;;;;;100.05;53.58;;;;;;;2.65;98.84;99459.37;1610109;87;27449;-51
2024/01/01 00:59:14;;;;;;;92.30;49.08;;;;;;;2.66;98.87;99456.18;1644394;87;25773;-53
2024/01/01 01:01:40;;;;;;;90.42;49.27;;;;;;;2.67;98.78;99453.75;1621855;87;25473;-51
2024/01/01 01:04:07;;;;;;;87.80;47.10;;;;;;;2.68;98.85;99438.79;1644460;87;25729;-51
2024/01/01 01:06:33;;;;;;;84.67;45.85;;;;;;;2.68;98.73;99440.67;1644515;87;25412;-51
2024/01/01 01:08:59;;;;;;;83.27;46.95;;;;;;;2.65;98.69;99447.34;1643504;86;28045;-51
2024/01/01 01:11:25;;;;;;;90.77;45.58;;;;;;;2.65;98.60;99443.34;1642994;87;25414;-55
2024/01/01 01:13:52;;;;;;;81.53;44.25;;;;;;;2.65;98.62;99447.34;1616326;86;25506;-52
2024/01/01 01:16:19;;;;;;;78.62;43.15;;;;;;;2.65;98.48;99452.69;1610589;87;26272;-53
2024/01/01 01:18:45;;;;;;;76.22;42.50;;;;;;;2.65;98.48;99448.69;1661391;86;25490;-52
2024/01/01 01:21:13;;;;;;;77.12;41.48;;;;;;;2.65;98.53;99454.58;1633048;87;27319;-52
2024/01/01 01:23:39;;;;;;;69.17;38.45;;;;;;;2.64;98.61;99449.78;1638373;86;25508;-53
2024/01/01 01:26:06;;;;;;;69.97;36.77;;;;;;;2.64;98.61;99452.45;1645220;86;25449;-53
2024/01/01 01:28:32;;;;;;;66.72;36.73;;;;;;;2.64;98.57;99452.45;1661329;86;26327;-52
2024/01/01 01:30:58;;;;;;;70.40;36.42;;;;;;;2.63;98.58;99448.72;1593626;88;25533;-51
2024/01/01 01:33:24;;;;;;;70.57;36.83;;;;;;;2.60;98.55;99442.05;1620544;87;28179;-52
2024/01/01 01:35:51;;;;;;;56.58;33.18;;;;;;;2.62;98.59;99443.89;1572706;88;25472;-54
2024/01/01 01:38:17;;;;;;;62.00;34.98;;;;;;;2.60;98.68;99443.38;1620476;87;25461;-54
2024/01/01 01:40:43;;;;;;;56.18;32.10;;;;;;;2.59;98.59;99441.25;1617335;88;26333;-52
2024/01/01 01:43:24;;;;;;;60.83;32.25;;;;;;;2.58;98.63;99447.66;1638210;86;25522;-53
2024/01/01 01:45:52;;;;;;;54.93;31.82;;;;;;;2.55;98.66;99441.53;1610349;87;27362;-54
2024/01/01 01:48:19;;;;;;;55.55;31.05;;;;;;;2.56;98.72;99436.46;1661235;86;25504;-53
2024/01/01 01:50:46;;;;;;;54.27;29.87;;;;;;;2.55;98.76;99434.85;1632999;87;25505;-54
2024/01/01 01:53:14;;;;;;;54.18;30.12;;;;;;;2.55;98.74;99441.53;1661320;86;25614;-52
2024/01/01 01:55:45;;;;;;;53.98;28.47;;;;;;;2.55;98.86;99436.19;1633041;87;25441;-52
2024/01/01 01:58:12;;;;;;;56.00;28.90;;;;;;;2.55;98.82;99438.06;1638137;86;27916;-52
2024/01/01 02:00:39;;;;;;;50.75;28.67;;;;;;;2.55;99.03;99449.53;1610358;87;25753;-55
2024/01/01 02:03:08;;;;;;;55.35;28.80;;;;;;;2.55;98.94;99449.53;1638205;86;25476;-53
2024/01/01 02:05:34;;;;;;;54.53;29.27;;;;;;;2.56;98.86;99453.81;1610690;87;25654;-54
2024/01/01 02:08:02;;;;;;;51.60;28.50;;;;;;;2.56;98.89;99452.48;1641164;84;25504;-53
2024/01/01 02:10:28;;;;;;;50.90;28.38;;;;;;;2.55;98.81;99445.53;1596195;87;27338;-51
2024/01/01 02:12:55;;;;;;;46.00;26.37;;;;;;;2.56;98.76;99447.69;1670220;85;25495;-54
2024/01/01 02:15:21;;;;;;;49.90;28.23;;;;;;;2.53;98.51;99437.01;1670304;85;25422;-53
2024/01/01 02:17:48;;;;;;;52.50;27.10;;;;;;;2.51;98.55;99444.50;1665697;84;25813;-51
2024/01/01 02:20:15;;;;;;;52.45;27.25;;;;;;;2.50;98.40;99434.88;1670356;85;25469;-55
2024/01/01 02:22:42;;;;;;;50.45;25.82;;;;;;;2.47;98.20;99431.45;1670301;85;27916;-55
2024/01/01 02:25:09;;;;;;;50.88;26.05;;;;;;;2.46;98.27;99433.85;1643167;85;25722;-55
2024/01/01 02:27:37;;;;;;;52.67;29.02;;;;;;;2.44;98.26;99426.66;1670270;85;25454;-56
2024/01/01 02:30:10;;;;;;;48.28;26.17;;;;;;;2.41;98.30;99423.99;1643281;85;25703;-53
2024/01/01 02:32:33;;;;;;;48.70;26.70;;;;;;;2.39;98.39;99423.48;1669823;85;25493;-53
2024/01/01 02:35:00;;;;;;;48.23;25.75;;;;;;;2.36;98.38;99420.56;1643554;85;27353;-52
2024/01/01 02:37:26;;;;;;;48.73;26.77;;;;;;;2.34;98.33;99418.71;1670179;85;25602;-52
2024/01/01 02:39:52;;;;;;;51.30;27.95;;;;;;;2.31;98.43;99409.38;1643226;85;25444;-54
2024/01/01 02:42:18;;;;;;;49.55;27.85;;;;;;;2.31;98.38;99415.25;1670237;85;25623;-53
2024/01/01 02:44:45;;;;;;;51.08;27.62;;;;;;;2.30;98.42;99408.31;1670295;85;25452;-52
2024/01/01 02:47:11;;;;;;;54.18;26.77;;;;;;;2.27;98.29;99410.22;1642990;85;27424;-54
2024/01/01 02:49:37;;;;;;;44.42;26.82;;;;;;;2.23;98.18;99398.75;1670148;85;25611;-53
2024/01/01 02:52:04;;;;;;;45.17;25.27;;;;;;;2.23;98.12;99401.42;1670215;85;25496;-54
2024/01/01 02:54:30;;;;;;;49.30;25.27;;;;;;;2.21;98.15;99402.75;1670218;85;26165;-56
2024/01/01 02:56:56;;;;;;;47.55;26.70;;;;;;;2.18;98.25;99403.30;1643387;85;25472;-56
2024/01/01 02:59:22;;;;;;;48.23;26.87;;;;;;;2.16;98.21;99399.59;1670299;85;27352;-53
2024/01/01 03:01:49;;;;;;;48.65;25.55;;;;;;;2.12;98.45;99390.53;1643313;85;25607;-55
2024/01/01 03:04:15;;;;;;;48.42;27.50;;;;;;;2.09;98.34;99385.73;1643166;85;25456;-55
2024/01/01 03:06:41;;;;;;;45.60;25.72;;;;;;;2.08;98.60;99386.01;1670228;85;25616;-54
2024/01/01 03:09:08;;;;;;;46.48;26.25;;;;;;;2.05;98.33;99388.70;1670133;85;25499;-53
2024/01/01 03:11:34;;;;;;;45.17;25.70;;;;;;;2.03;98.04;99390.31;1670261;85;27945;-55
2024/01/01 03:14:00;;;;;;;43.75;24.90;;;;;;;1.98;97.89;99390.87;1670178;85;25618;-52
2024/01/01 03:16:27;;;;;;;44.95;24.35;;;;;;;1.94;97.77;99390.63;1642998;85;25520;-55
2024/01/01 03:18:53;;;;;;;45.65;24.67;;;;;;;1.91;97.76;99385.02;1670225;85;25624;-53
2024/01/01 03:21:19;;;;;;;48.45;25.30;;;;;;;1.87;97.93;99380.77;1643055;85;25505;-54
2024/01/01 03:23:46;;;;;;;50.70;26.23;;;;;;;1.84;97.98;99382.13;1670246;85;27350;-52
2024/01/01 03:26:12;;;;;;;44.77;25.12;;;;;;;1.81;98.16;99376.55;1642799;85;25660;-51
2024/01/01 03:28:38;;;;;;;44.33;24.35;;;;;;;1.78;97.80;99385.88;1643510;85;25528;-52
2024/01/01 03:31:05;;;;;;;48.23;25.50;;;;;;;1.76;97.72;99384.56;1643386;85;26181;-51
2024/01/01 03:33:34;;;;;;;40.20;23.57;;;;;;;1.72;97.50;99380.31;1670278;85;25482;-53
2024/01/01 03:36:01;;;;;;;48.45;26.05;;;;;;;1.67;97.55;99379.80;1643209;85;27345;-53
2024/01/01 03:38:28;;;;;;;44.50;24.63;;;;;;;1.63;97.63;99377.93;1670142;85;25665;-52
2024/01/01 03:40:54;;;;;;;49.55;25.25;;;;;;;1.59;97.67;99379.02;1670313;85;25433;-52
2024/01/01 03:43:21;;;;;;;42.17;24.35;;;;;;;1.56;97.56;99376.88;1643361;85;25767;-51
2024/01/01 03:45:47;;;;;;;43.00;24.63;;;;;;;1.53;97.46;99369.42;1670415;85;25482;-55
2024/01/01 03:48:13;;;;;;;46.10;24.00;;;;;;;1.50;97.33;99369.99;1670373;85;27289;-51
2024/01/01 03:50:42;;;;;;;46.13;25.25;;;;;;;1.43;97.63;99368.94;1670270;85;25401;-52
2024/01/01 03:53:08;;;;;;;45.55;24.75;;;;;;;1.40;97.47;99369.48;1643214;85;25436;-51
2024/01/01 03:55:35;;;;;;;49.27;25.27;;;;;;;1.37;97.41;99375.88;1643062;85;25615;-51
2024/01/01 03:58:02;;;;;;;48.02;24.35;;;;;;;1.33;97.90;99374.30;1670414;85;25491;-52
2024/01/01 04:00:29;;;;;;;43.42;24.23;;;;;;;1.32;98.12;99375.35;1670373;85;27410;-52
2024/01/01 04:02:55;;;;;;;45.45;26.23;;;;;;;1.32;98.42;99375.89;1670277;85;25676;-53
2024/01/01 04:05:22;;;;;;;45.98;25.27;;;;;;;1.29;98.42;99374.55;1670372;84;25503;-52
2024/01/01 04:07:48;;;;;;;50.98;27.48;;;;;;;1.29;98.67;99375.89;1670315;85;25624;-51
2024/01/01 04:10:15;;;;;;;50.83;26.07;;;;;;;1.28;99.04;99368.98;1689446;84;25451;-52
2024/01/01 04:12:41;;;;;;;47.48;26.12;;;;;;;1.29;99.33;99371.38;1689525;85;26900;-52
2024/01/01 04:15:08;;;;;;;49.40;25.77;;;;;;;1.30;99.49;99367.63;1689445;85;25495;-51
2024/01/01 04:17:34;;;;;;;50.55;26.93;;;;;;;1.33;99.98;99365.48;1663579;85;25449;-55
2024/01/01 04:20:00;;;;;;;51.60;26.95;;;;;;;1.35;99.95;99368.16;1663760;85;25551;-53
2024/01/01 04:22:27;;;;;;;49.05;26.70;;;;;;;1.36;99.98;99369.73;1689464;85;25474;-55
2024/01/01 04:24:53;;;;;;;53.20;27.07;;;;;;;1.37;100.00;99362.02;1663693;85;28079;-53
2024/01/01 04:27:20;;;;;;;50.05;27.40;;;;;;;1.37;99.89;99355.35;1689435;85;25568;-52
2024/01/01 04:29:46;;;;;;;45.35;25.75;;;;;;;1.38;99.74;99353.48;1689483;85;25498;-53
2024/01/01 04:32:12;;;;;;;46.55;25.82;;;;;;;1.39;99.76;99348.42;1663701;85;25617;-53
2024/01/01 04:34:38;;;;;;;46.75;24.43;;;;;;;1.39;99.84;99347.09;1596147;87;25487;-54
2024/01/01 04:37:05;;;;;;;42.10;24.43;;;;;;;1.37;99.68;99339.37;1641420;85;27344;-52
2024/01/01 04:39:31;;;;;;;44.10;25.17;;;;;;;1.40;99.60;99346.03;1617267;87;25518;-52
2024/01/01 04:41:58;;;;;;;44.65;24.70;;;;;;;1.37;99.45;99338.03;1643202;85;25503;-52
2024/01/01 04:44:24;;;;;;;42.30;24.70;;;;;;;1.37;99.43;99344.70;1670307;85;25781;-52
2024/01/01 04:46:51;;;;;;;44.70;24.07;;;;;;;1.37;99.44;99342.58;1643247;85;25525;-52
2024/01/01 04:49:17;;;;;;;43.42;24.52;;;;;;;1.36;99.31;99336.97;1643117;85;27417;-53
2024/01/01 04:51:43;;;;;;;41.30;24.37;;;;;;;1.36;99.24;99335.64;1643005;85;25416;-52
2024/01/01 04:54:10;;;;;;;48.92;26.02;;;;;;;1.35;99.15;99326.06;1643046;85;25459;-52
2024/01/01 04:56:36;;;;;;;43.85;25.43;;;;;;;1.34;99.21;99317.25;1621332;85;25712;-55
2024/01/01 04:59:03;;;;;;;52.85;26.00;;;;;;;1.34;99.37;99317.25;1596233;87;25470;-52
2024/01/01 05:01:29;;;;;;;49.33;25.52;;;;;;;1.34;99.49;99313.25;1670331;85;27351;-55
2024/01/01 05:03:56;;;;;;;48.90;24.72;;;;;;;1.36;99.75;99311.66;1643053;85;25757;-53
2024/01/01 05:06:22;;;;;;;47.55;25.68;;;;;;;1.37;100.00;99311.39;1643422;85;25525;-55
2024/01/01 05:08:49;;;;;;;54.45;27.93;;;;;;;1.39;100.00;99320.45;1669660;84;25794;-52
2024/01/01 05:11:15;;;;;;;44.80;25.75;;;;;;;1.40;100.00;99324.72;1636772;87;25442;-52
2024/01/01 05:13:41;;;;;;;41.48;24.10;;;;;;;1.41;100.00;99321.75;1662800;86;27397;-55
2024/01/01 05:16:10;;;;;;;41.55;24.10;;;;;;;1.44;100.00;99317.77;1610010;87;25460;-55
2024/01/01 05:18:37;;;;;;;44.27;25.52;;;;;;;1.45;100.00;99323.37;1620738;87;25537;-51
2024/01/01 05:21:05;;;;;;;51.58;26.65;;;;;;;1.42;100.00;99312.70;1639710;86;25637;-51
2024/01/01 05:23:31;;;;;;;53.75;26.00;;;;;;;1.45;100.00;99312.16;1636747;87;25537;-53
2024/01/01 05:25:58;;;;;;;45.50;26.73;;;;;;;1.46;100.00;99317.77;1639626;86;27356;-51
2024/01/01 05:28:24;;;;;;;44.85;26.48;;;;;;;1.51;100.00;99321.47;1632298;87;25678;-50
2024/01/01 05:30:50;;;;;;;50.73;27.00;;;;;;;1.53;100.00;99324.11;1611292;87;25454;-51
2024/01/01 05:33:17;;;;;;;46.18;26.68;;;;;;;1.56;100.00;99327.57;1610060;87;25693;-52
2024/01/01 05:35:43;;;;;;;53.00;27.98;;;;;;;1.60;100.00;99323.82;1632330;87;25500;-51
2024/01/01 05:38:09;;;;;;;51.35;26.95;;;;;;;1.63;100.00;99323.28;1621533;87;27293;-51
2024/01/01 05:40:38;;;;;;;47.30;26.30;;;;;;;1.66;100.00;99322.20;1639619;86;25644;-51
2024/01/01 05:43:05;;;;;;;49.75;26.57;;;;;;;1.68;100.00;99324.05;1632267;87;25461;-52
2024/01/01 05:45:31;;;;;;;48.65;25.97;;;;;;;1.73;100.00;99331.78;1644406;87;25799;-51
2024/01/01 05:47:57;;;;;;;57.78;27.87;;;;;;;1.75;100.00;99328.30;1644499;87;25505;-51
2024/01/01 05:50:24;;;;;;;49.15;28.00;;;;;;;1.78;100.00;99321.88;1617972;86;28148;-51
2024/01/01 05:52:50;;;;;;;49.53;28.17;;;;;;;1.82;100.00;99312.80;1611358;87;25516;-51
2024/01/01 05:55:17;;;;;;;50.43;29.25;;;;;;;1.84;100.00;99322.13;1610055;87;25581;-53
2024/01/01 05:57:43;;;;;;;48.83;28.02;;;;;;;1.85;100.00;99317.03;1660588;86;25626;-55
2024/01/01 06:00:12;;;;;;;53.95;27.95;;;;;;;1.91;100.00;99318.34;1637479;86;25452;-54
2024/01/01 06:02:39;;;;;;;49.03;27.65;;;;;;;1.93;100.00;99317.02;1633843;87;28110;-54
2024/01/01 06:05:06;;;;;;;51.98;26.50;;;;;;;1.95;100.00;99322.86;1663187;86;25634;-54
2024/01/01 06:07:32;;;;;;;53.15;30.02;;;;;;;1.97;100.00;99315.37;1636735;87;25528;-54
2024/01/01 06:09:59;;;;;;;57.58;29.95;;;;;;;1.99;100.00;99319.92;1665898;85;25634;-54
2024/01/01 06:12:25;;;;;;;52.48;28.77;;;;;;;2.03;100.00;99321.50;1617288;87;25457;-54
2024/01/01 06:14:51;;;;;;;52.15;29.45;;;;;;;2.04;100.00;99323.08;1643106;85;27345;-55
2024/01/01 06:17:18;;;;;;;57.05;30.55;;;;;;;2.06;100.00;99327.63;1670230;85;25492;-53
2024/01/01 06:19:44;;;;;;;48.10;27.70;;;;;;;2.07;100.00;99326.53;1643120;85;25511;-51
2024/01/01 06:22:10;;;;;;;59.90;29.72;;;;;;;2.10;100.00;99318.53;1670260;85;25604;-52
2024/01/01 06:24:36;;;;;;;60.85;29.20;;;;;;;2.11;100.00;99314.25;1643153;85;25529;-53
2024/01/01 06:27:03;;;;;;;59.63;29.35;;;;;;;2.12;100.00;99310.49;1617325;87;27380;-51
2024/01/01 06:29:29;;;;;;;57.48;29.55;;;;;;;2.13;100.00;99314.77;1642974;85;25507;-52
2024/01/01 06:31:56;;;;;;;65.50;30.95;;;;;;;2.16;100.00;99324.08;1670277;85;25453;-53
2024/01/01 06:34:23;;;;;;;60.80;30.08;;;;;;;2.17;100.00;99311.00;1665867;84;25631;-52
2024/01/01 06:36:49;;;;;;;58.80;29.87;;;;;;;2.17;100.00;99321.13;1670300;85;25439;-51
2024/01/01 06:39:16;;;;;;;56.45;29.20;;;;;;;2.19;100.00;99325.65;1663717;85;27407;-55
2024/01/01 06:41:42;;;;;;;66.17;31.50;;;;;;;2.20;100.00;99318.47;1689363;85;25406;-54
2024/01/01 06:44:09;;;;;;;63.08;30.45;;;;;;;2.22;100.00;99310.97;1689433;85;25430;-54
2024/01/01 06:46:35;;;;;;;65.40;30.70;;;;;;;2.22;100.00;99305.64;1689394;85;25633;-51
2024/01/01 06:49:01;;;;;;;69.62;31.45;;;;;;;2.23;100.00;99301.88;1689452;84;25464;-52
2024/01/01 06:51:27;;;;;;;63.52;31.00;;;;;;;2.24;100.00;99305.60;1689363;85;27290;-54
2024/01/01 06:53:54;;;;;;;66.97;30.65;;;;;;;2.24;100.00;99313.61;1663487;85;25515;-53
2024/01/01 06:56:20;;;;;;;68.78;31.62;;;;;;;2.24;100.00;99318.94;1663665;85;25531;-52
2024/01/01 06:58:47;;;;;;;70.10;33.23;;;;;;;2.24;100.00;99320.83;1689376;85;25565;-53
2024/01/01 07:01:13;;;;;;;67.55;30.27;;;;;;;2.25;100.00;99326.44;1663535;85;25492;-51
2024/01/01 07:03:40;;;;;;;65.75;30.80;;;;;;;2.26;100.00;99323.22;1686759;84;27356;-51
2024/01/01 07:06:06;;;;;;;71.35;31.23;;;;;;;2.28;100.00;99320.52;1689339;85;25451;-51
2024/01/01 07:08:33;;;;;;;69.53;32.42;;;;;;;2.27;100.00;99312.27;1689404;85;25424;-51
2024/01/01 07:10:59;;;;;;;66.80;29.20;;;;;;;2.27;100.00;99310.94;1669776;84;25858;-52
2024/01/01 07:13:25;;;;;;;65.60;31.62;;;;;;;2.30;100.00;99316.24;1639767;86;25523;-53
2024/01/01 07:15:52;;;;;;;70.45;31.37;;;;;;;2.30;100.00;99305.56;1662865;86;27319;-55
2024/01/01 07:18:20;;;;;;;75.15;31.97;;;;;;;2.33;100.00;99310.36;1662829;86;25599;-52
2024/01/01 07:20:46;;;;;;;67.58;30.60;;;;;;;2.34;100.00;99311.41;1662916;86;25481;-51
2024/01/01 07:23:13;;;;;;;73.50;31.82;;;;;;;2.36;100.00;99310.59;1639954;86;25643;-54
2024/01/01 07:25:39;;;;;;;67.25;32.53;;;;;;;2.36;100.00;99312.47;1662937;86;25508;-52
2024/01/01 07:28:05;;;;;;;71.20;31.93;;;;;;;2.37;100.00;99316.75;1662878;86;27929;-52
2024/01/01 07:30:31;;;;;;;73.60;32.08;;;;;;;2.39;100.00;99318.05;1639579;86;25448;-51
2024/01/01 07:32:58;;;;;;;75.72;32.15;;;;;;;2.40;100.00;99321.50;1662904;86;25505;-51
2024/01/01 07:35:25;;;;;;;77.78;33.28;;;;;;;2.41;100.00;99320.44;1662868;86;26159;-51
2024/01/01 07:37:51;;;;;;;76.40;32.90;;;;;;;2.41;100.00;99321.23;1639866;86;25520;-54
2024/01/01 07:40:18;;;;;;;78.97;33.63;;;;;;;2.45;100.00;99318.02;1610342;88;27376;-53
2024/01/01 07:42:45;;;;;;;76.12;33.15;;;;;;;2.43;100.00;99315.62;1662818;86;25465;-51
2024/01/01 07:45:12;;;;;;;83.40;32.67;;;;;;;2.46;100.00;99315.61;1662905;85;25508;-55
2024/01/01 07:47:38;;;;;;;79.45;32.98;;;;;;;2.46;100.00;99313.73;1618049;86;25716;-52
2024/01/01 07:50:07;;;;;;;76.82;33.28;;;;;;;2.47;100.00;99320.67;1662901;86;25468;-55
2024/01/01 07:52:33;;;;;;;87.30;33.43;;;;;;;2.47;100.00;99319.34;1663115;86;27360;-53
2024/01/01 07:54:59;;;;;;;71.22;31.42;;;;;;;2.49;100.00;99321.19;1662845;86;25582;-51
2024/01/01 07:57:25;;;;;;;84.62;32.58;;;;;;;2.47;100.00;99331.35;1662914;86;25524;-51
2024/01/01 07:59:55;;;;;;;82.55;33.95;;;;;;;2.47;100.00;99330.02;1662859;86;25614;-50
2024/01/01 08:02:21;;;;;;;;;;;;;;;2.48;100.00;99328.92;1665390;85;25510;-51
2024/01/01 08:04:47;;;;;;;80.42;32.45;;;;;;;2.47;100.00;99329.20;1639766;86;26951;-52
2024/01/01 08:07:14;;;;;;;80.45;32.17;;;;;;;2.48;100.00;99321.46;1662794;86;25422;-51
2024/01/01 08:09:40;;;;;;;94.50;34.73;;;;;;;2.48;100.00;99330.80;1664224;84;25448;-52
2024/01/01 08:12:07;;;;;;;87.75;34.78;;;;;;;2.49;100.00;99322.52;1641285;85;25616;-51
2024/01/01 08:14:33;;;;;;;73.30;33.35;;;;;;;2.51;100.00;99327.04;1689558;85;25478;-54
2024/01/01 08:16:59;;;;;;;74.80;32.38;;;;;;;2.54;100.00;99319.02;1686909;84;27273;-50
2024/01/01 08:19:26;;;;;;;86.60;35.45;;;;;;;2.55;100.00;99319.27;1689434;85;25570;-52
2024/01/01 08:21:52;;;;;;;79.67;33.42;;;;;;;2.58;100.00;99320.84;1689521;85;25468;-51
2024/01/01 08:24:18;;;;;;;84.80;34.45;;;;;;;2.61;100.00;99322.16;1689497;84;25565;-52
2024/01/01 08:26:44;;;;;;;87.27;34.23;;;;;;;2.60;100.00;99316.55;1689488;85;25434;-52
2024/01/01 08:29:12;;;;;;;85.05;34.73;;;;;;;2.63;100.00;99311.20;1689510;85;27416;-50
2024/01/01 08:31:38;;;;;;;93.87;33.90;;;;;;;2.63;100.00;99305.87;1689404;85;25425;-52
2024/01/01 08:34:04;;;;;;;87.25;34.08;;;;;;;2.65;100.00;99317.84;1689525;85;25457;-51
2024/01/01 08:36:30;;;;;;;88.12;34.33;;;;;;;2.65;100.00;99311.72;1689492;84;25676;-51
2024/01/01 08:38:56;;;;;;;101.58;33.30;;;;;;;2.68;100.00;99312.50;1689561;85;25516;-51
2024/01/01 08:41:23;;;;;;;91.15;33.33;;;;;;;2.67;100.00;99305.01;1617411;87;28003;-52
2024/01/01 08:43:56;;;;;;;94.67;34.65;;;;;;;2.67;100.00;99306.89;1641442;85;25520;-55
2024/01/01 08:46:23;;;;;;;85.40;34.23;;;;;;;2.67;100.00;99306.89;1689162;84;25458;-54
2024/01/01 08:48:49;;;;;;;84.67;33.85;;;;;;;2.68;100.00;99305.28;1689483;85;25782;-53
2024/01/01 08:51:15;;;;;;;82.22;34.43;;;;;;;2.70;100.00;99299.66;1689507;85;25622;-54
2024/01/01 08:53:41;;;;;;;88.07;35.60;;;;;;;2.69;100.00;99300.72;1617322;87;27375;-53
2024/01/01 08:56:08;;;;;;;91.22;34.25;;;;;;;2.71;100.00;99304.72;1663539;85;25505;-55
2024/01/01 08:58:35;;;;;;;88.42;35.55;;;;;;;2.73;100.00;99301.77;1640966;85;25481;-51
2024/01/01 09:01:01;;;;;;;89.05;34.65;;;;;;;2.71;100.00;99299.93;1663671;85;25645;-51
2024/01/01 09:03:30;;;;;;;82.27;34.75;;;;;;;2.74;100.00;99299.34;1663676;85;25495;-53
2024/01/01 09:05:57;;;;;;;91.13;35.90;;;;;;;2.75;100.00;99296.39;1617648;87;27913;-54
2024/01/01 09:08:28;;;;;;;92.10;34.27;;;;;;;2.77;100.00;99296.12;1670271;85;25421;-54
2024/01/01 09:10:55;;;;;;;82.00;35.95;;;;;;;2.79;100.00;99296.62;1670220;85;25422;-54
2024/01/01 09:13:21;;;;;;;82.08;34.38;;;;;;;2.79;100.00;99289.44;1670267;85;25672;-55
2024/01/01 09:15:48;;;;;;;84.17;33.98;;;;;;;2.82;100.00;99294.73;1670370;85;25449;-55
2024/01/01 09:18:15;;;;;;;82.78;33.13;;;;;;;2.83;100.00;99291.00;1670324;85;27320;-56
2024/01/01 09:20:41;;;;;;;78.65;34.73;;;;;;;2.86;100.00;99289.63;1670227;85;25659;-55
2024/01/01 09:23:08;;;;;;;91.25;35.40;;;;;;;2.86;100.00;99289.63;1665860;84;25469;-52
2024/01/01 09:25:38;;;;;;;83.67;35.65;;;;;;;2.88;100.00;99286.94;1670276;85;25670;-57
2024/01/01 09:28:05;;;;;;;78.50;33.75;;;;;;;2.91;100.00;99286.90;1643030;85;25563;-56
2024/01/01 09:30:31;;;;;;;86.10;36.17;;;;;;;2.89;100.00;99287.73;1643716;85;28126;-54
2024/01/01 09:32:57;;;;;;;76.70;33.28;;;;;;;2.91;100.00;99292.24;1670209;85;25526;-53
2024/01/01 09:35:24;;;;;;;81.05;33.38;;;;;;;2.90;100.00;99289.33;1643375;85;25450;-56
2024/01/01 09:37:53;;;;;;;73.95;32.80;;;;;;;2.90;100.00;99288.00;1643486;85;25628;-57
2024/01/01 09:40:20;;;;;;;70.12;32.33;;;;;;;2.89;100.00;99281.05;1670305;84;25454;-56
2024/01/01 09:42:49;;;;;;;83.50;33.35;;;;;;;2.90;100.00;99275.43;1670310;85;27350;-54
2024/01/01 09:45:16;;;;;;;78.40;32.60;;;;;;;2.93;100.00;99274.88;1670143;84;25458;-56
2024/01/01 09:47:43;;;;;;;70.70;33.33;;;;;;;2.95;100.00;99274.04;1670297;85;25416;-55
2024/01/01 09:50:10;;;;;;;67.65;32.85;;;;;;;2.96;100.00;99270.82;1670261;85;26564;-57
2024/01/01 09:52:37;;;;;;;71.17;32.20;;;;;;;2.95;100.00;99271.92;1689456;84;25492;-58
2024/01/01 09:55:04;;;;;;;80.05;32.23;;;;;;;2.96;100.00;99264.14;1689437;85;27417;-58
2024/01/01 09:57:31;;;;;;;74.20;31.93;;;;;;;2.97;100.00;99261.19;1689325;85;25586;-54
2024/01/01 09:59:59;;;;;;;71.87;32.13;;;;;;;2.99;100.00;99258.23;1689504;85;25434;-56
2024/01/01 10:02:26;;;;;;;69.72;33.25;;;;;;;2.98;100.00;99264.13;1664017;85;25673;-57
2024/01/01 10:04:52;;;;;;;67.65;31.05;;;;;;;3.01;100.00;99261.42;1689482;85;25422;-55
2024/01/01 10:07:28;;;;;;;67.70;30.27;;;;;;;3.02;100.00;99260.34;1689464;85;27937;-55
2024/01/01 10:09:55;;;;;;;62.53;31.45;;;;;;;3.04;100.00;99258.19;1689357;85;25422;-57
2024/01/01 10:12:22;;;;;;;68.30;31.82;;;;;;;3.06;100.00;99250.67;1691882;84;25446;-54
2024/01/01 10:14:50;;;;;;;66.42;30.50;;;;;;;3.07;100.00;99251.49;1692158;84;26262;-54
2024/01/01 10:17:18;;;;;;;60.60;30.25;;;;;;;3.07;100.00;99245.59;1692211;84;25491;-56
2024/01/01 10:19:55;;;;;;;58.95;30.05;;;;;;;3.09;100.00;99244.77;1692208;84;27912;-57
2024/01/01 10:22:23;;;;;;;59.48;28.70;;;;;;;3.09;100.00;99238.09;1667968;84;25491;-55
2024/01/01 10:24:55;;;;;;;64.37;29.42;;;;;;;3.06;100.00;99237.31;1667735;84;25542;-54
2024/01/01 10:27:24;;;;;;;60.60;29.27;;;;;;;3.08;100.00;99230.35;1669259;84;26219;-54
2024/01/01 10:29:51;;;;;;;58.90;30.35;;;;;;;3.10;100.00;99230.34;1692312;84;25546;-56
2024/01/01 10:32:18;;;;;;;56.48;28.77;;;;;;;3.13;100.00;99224.43;1668170;84;27409;-55
2024/01/01 10:34:46;;;;;;;57.15;28.10;;;;;;;3.16;100.00;99224.38;1692118;84;25716;-54
2024/01/01 10:37:18;;;;;;;51.88;27.67;;;;;;;3.16;100.00;99219.04;1645948;84;25469;-57
2024/01/01 10:39:44;;;;;;;50.05;25.97;;;;;;;3.19;100.00;99221.14;1691092;84;25670;-54
2024/01/01 10:42:11;;;;;;;52.43;28.15;;;;;;;3.24;100.00;99224.30;1692338;84;25094;-52
2024/01/01 10:44:39;;;;;;;53.17;26.48;;;;;;;3.22;100.00;99210.41;1692183;84;27940;-55
2024/01/01 10:47:10;;;;;;;50.10;26.68;;;;;;;3.27;100.00;99217.84;1692071;84;25604;-54
2024/01/01 10:49:45;;;;;;;48.98;26.75;;;;;;;3.30;100.00;99217.28;1667967;84;25607;-53
2024/01/01 10:52:31;;;;;;;52.00;26.35;;;;;;;3.31;100.00;99215.39;1668164;84;27301;-55
2024/01/01 10:55:15;;;;;;;56.00;27.80;;;;;;;3.33;100.00;99214.01;1692350;84;25502;-53
2024/01/01 10:57:59;;;;;;;49.73;25.27;;;;;;;3.35;100.00;99214.55;1668624;84;27334;-53
2024/01/01 11:00:34;;;;;;;51.30;28.10;;;;;;;3.36;100.00;99204.08;1691624;84;25476;-54
2024/01/01 11:03:02;;;;;;;53.87;28.60;;;;;;;3.41;100.00;99209.91;1691631;84;25418;-57
2024/01/01 11:05:33;;;;;;;54.95;28.75;;;;;;;3.41;100.00;99207.23;1692209;84;26185;-54
2024/01/01 11:08:03;;;;;;;48.55;27.90;;;;;;;3.41;100.00;99211.25;1692332;84;25484;-56
2024/01/01 11:10:49;;;;;;;52.67;27.02;;;;;;;3.40;100.00;99200.84;1668214;84;27399;-56
2024/01/01 11:13:32;;;;;;;48.58;26.55;;;;;;;3.41;100.00;99207.23;1689379;85;25495;-57
2024/01/01 11:16:03;;;;;;;48.50;24.82;;;;;;;3.39;100.00;99199.23;1689599;84;25422;-55
2024/01/01 11:18:38;;;;;;;43.90;24.20;;;;;;;3.38;100.00;99197.66;1689501;85;25629;-56
2024/01/01 11:21:08;;;;;;;43.17;23.70;;;;;;;3.35;100.00;99197.16;1617431;87;25570;-54